createdAt,value
2023-05-05T00:00:52.300Z,15.43
2023-05-05T00:03:20.476Z,17.60
2023-05-05T00:05:48.001Z,16.03
2023-05-05T00:08:15.167Z,15.76
2023-05-05T00:10:42.546Z,16.04
2023-05-05T00:13:11.283Z,15.79
2023-05-05T00:15:38.600Z,16.37
2023-05-05T00:18:05.780Z,15.39
2023-05-05T00:20:32.970Z,15.70
2023-05-05T00:23:00.216Z,15.40
2023-05-05T00:25:27.381Z,17.44
2023-05-05T00:27:54.520Z,15.43
2023-05-05T00:30:23.222Z,18.64
2023-05-05T00:32:50.378Z,19.77
2023-05-05T00:35:17.726Z,19.96
2023-05-05T00:37:44.825Z,20.01
2023-05-05T00:40:12.749Z,17.35
2023-05-05T00:42:43.031Z,20.24
2023-05-05T00:45:10.711Z,19.49
2023-05-05T00:47:39.588Z,18.12
2023-05-05T00:50:07.588Z,18.61
2023-05-05T00:52:35.612Z,18.27
2023-05-05T00:55:02.996Z,18.72
2023-05-05T00:57:30.322Z,16.87
2023-05-05T00:59:59.152Z,17.70
2023-05-05T01:02:26.354Z,17.96
2023-05-05T01:04:55.286Z,17.92
2023-05-05T01:07:29.156Z,19.02
2023-05-05T01:10:15.167Z,17.51
2023-05-05T01:12:51.641Z,17.39
2023-05-05T01:15:22.849Z,18.84
2023-05-05T01:17:54.056Z,18.65
2023-05-05T01:20:26.254Z,17.43
2023-05-05T01:22:57.237Z,19.38
2023-05-05T01:25:39.924Z,17.51
2023-05-05T01:28:11.510Z,17.29
2023-05-05T01:30:46.163Z,17.10
2023-05-05T01:33:18.909Z,19.47
2023-05-05T01:35:47.404Z,19.00
2023-05-05T01:38:15.312Z,19.84
2023-05-05T01:40:45.007Z,20.25
2023-05-05T01:43:13.947Z,20.59
2023-05-05T01:45:42.609Z,18.11
2023-05-05T01:48:10.652Z,19.35
2023-05-05T01:50:39.659Z,19.64
2023-05-05T01:53:08.084Z,19.90
2023-05-05T01:55:35.882Z,18.55
2023-05-05T01:58:03.767Z,18.91
2023-05-05T02:00:31.180Z,17.29
2023-05-05T02:02:59.288Z,18.65
2023-05-05T02:05:26.792Z,18.96
2023-05-05T02:07:57.963Z,18.53
2023-05-05T02:10:25.733Z,16.33
2023-05-05T02:12:53.945Z,18.63
2023-05-05T02:15:21.864Z,18.01
2023-05-05T02:17:50.827Z,18.33
2023-05-05T02:20:18.673Z,18.95
2023-05-05T02:22:45.995Z,19.02
2023-05-05T02:25:14.882Z,19.52
2023-05-05T02:27:43.174Z,19.29
2023-05-05T02:30:12.087Z,18.30
2023-05-05T02:32:43.217Z,17.88
2023-05-05T02:35:14.421Z,17.63
2023-05-05T02:37:45.208Z,19.03
2023-05-05T02:40:18.089Z,18.37
2023-05-05T02:42:47.393Z,19.17
2023-05-05T02:45:16.041Z,19.66
2023-05-05T02:47:46.176Z,19.77
2023-05-05T02:50:14.007Z,18.60
2023-05-05T02:52:48.134Z,19.39
2023-05-05T02:55:18.489Z,19.34
2023-05-05T02:57:49.934Z,18.81
2023-05-05T03:00:23.027Z,19.59
2023-05-05T03:02:55.092Z,19.23
2023-05-05T03:05:23.877Z,19.00
2023-05-05T03:07:54.939Z,17.23
2023-05-05T03:10:28.541Z,16.79
2023-05-05T03:12:58.636Z,17.95
2023-05-05T03:15:36.886Z,19.02
2023-05-05T03:18:06.558Z,18.91
2023-05-05T03:20:34.697Z,19.06
2023-05-05T03:23:07.524Z,18.79
2023-05-05T03:25:46.450Z,18.85
2023-05-05T03:28:26.927Z,17.49
2023-05-05T03:30:55.308Z,17.88
2023-05-05T03:33:22.685Z,19.03
2023-05-05T03:35:50.127Z,19.84
2023-05-05T03:38:18.258Z,19.63
2023-05-05T03:40:47.589Z,19.87
2023-05-05T03:43:18.284Z,19.83
2023-05-05T03:45:45.554Z,19.14
2023-05-05T03:48:12.892Z,19.73
2023-05-05T03:50:44.633Z,19.12
2023-05-05T03:53:13.198Z,18.25
2023-05-05T03:55:41.328Z,19.58
2023-05-05T03:58:09.971Z,20.38
2023-05-05T04:00:37.296Z,19.80
2023-05-05T04:03:05.233Z,19.18
2023-05-05T04:05:32.560Z,17.61
2023-05-05T04:07:59.791Z,18.24
2023-05-05T04:10:27.015Z,18.38
2023-05-05T04:12:54.786Z,17.75
2023-05-05T04:15:23.565Z,17.93
2023-05-05T04:17:50.891Z,17.23
2023-05-05T04:20:18.222Z,18.80
2023-05-05T04:22:45.347Z,18.90
2023-05-05T04:25:12.647Z,16.94
2023-05-05T04:27:39.776Z,17.50
2023-05-05T04:30:08.630Z,17.63
2023-05-05T04:32:39.589Z,17.75
2023-05-05T04:35:07.629Z,18.01
2023-05-05T04:37:34.728Z,17.85
2023-05-05T04:40:01.869Z,17.51
2023-05-05T04:42:31.095Z,17.32
2023-05-05T04:44:58.369Z,16.71
2023-05-05T04:47:25.860Z,17.20
2023-05-05T04:49:56.021Z,16.70
2023-05-05T04:52:23.377Z,16.51
2023-05-05T04:54:51.748Z,18.69
2023-05-05T04:57:18.927Z,16.72
2023-05-05T04:59:46.154Z,16.24
2023-05-05T05:02:13.441Z,20.18
2023-05-05T05:04:40.654Z,18.23
2023-05-05T05:07:09.276Z,17.53
2023-05-05T05:09:36.356Z,17.68
2023-05-05T05:12:03.712Z,17.34
2023-05-05T05:14:30.925Z,17.68
2023-05-05T05:16:58.034Z,16.37
2023-05-05T05:19:25.187Z,17.71
2023-05-05T05:21:52.923Z,16.34
2023-05-05T05:24:21.550Z,16.99
2023-05-05T05:26:48.733Z,17.87
2023-05-05T05:29:16.333Z,16.68
2023-05-05T05:31:43.729Z,18.30
2023-05-05T05:34:12.803Z,18.83
2023-05-05T05:36:41.489Z,17.46
2023-05-05T05:39:08.654Z,17.65
2023-05-05T05:41:37.265Z,18.42
2023-05-05T05:44:04.505Z,19.09
2023-05-05T05:46:32.140Z,19.25
2023-05-05T05:48:59.346Z,19.28
2023-05-05T05:51:27.192Z,17.94
2023-05-05T05:53:55.103Z,18.18
2023-05-05T05:56:23.723Z,18.69
2023-05-05T05:58:53.301Z,18.67
2023-05-05T06:01:20.861Z,18.50
2023-05-05T06:03:48.448Z,18.50
2023-05-05T06:06:16.170Z,16.71
2023-05-05T06:08:44.838Z,18.93
2023-05-05T06:11:12.031Z,17.98
2023-05-05T06:13:39.225Z,17.45
2023-05-05T06:16:08.750Z,18.13
2023-05-05T06:18:37.536Z,17.28
2023-05-05T06:21:04.808Z,17.36
2023-05-05T06:23:32.345Z,17.09
2023-05-05T06:26:04.250Z,17.55
2023-05-05T06:28:31.361Z,17.65
2023-05-05T06:30:58.454Z,17.46
2023-05-05T06:33:27.072Z,16.96
2023-05-05T06:35:54.319Z,17.25
2023-05-05T06:38:21.494Z,16.11
2023-05-05T06:40:48.620Z,17.59
2023-05-05T06:43:15.949Z,18.25
2023-05-05T06:45:48.205Z,17.98
2023-05-05T06:48:15.361Z,18.15
2023-05-05T06:50:44.072Z,19.88
2023-05-05T06:53:11.206Z,18.57
2023-05-05T06:55:38.388Z,18.52
2023-05-05T06:58:05.574Z,18.85
2023-05-05T07:00:32.998Z,19.57
2023-05-05T07:03:00.313Z,18.38
2023-05-05T07:05:27.548Z,18.07
2023-05-05T07:07:56.745Z,17.47
2023-05-05T07:10:24.703Z,19.00
2023-05-05T07:12:52.307Z,19.31
2023-05-05T07:15:27.353Z,17.89
2023-05-05T07:17:56.119Z,16.69
2023-05-05T07:20:23.384Z,19.01
2023-05-05T07:22:50.510Z,17.40
2023-05-05T07:25:19.299Z,18.86
2023-05-05T07:27:46.495Z,17.69
2023-05-05T07:30:18.752Z,17.72
2023-05-05T07:32:46.470Z,16.66
2023-05-05T07:35:13.786Z,19.24
2023-05-05T07:37:40.962Z,16.98
2023-05-05T07:40:08.939Z,18.75
2023-05-05T07:42:37.783Z,16.61
2023-05-05T07:45:05.421Z,17.11
2023-05-05T07:47:32.704Z,17.15
2023-05-05T07:50:01.205Z,16.20
2023-05-05T07:52:44.230Z,18.58
2023-05-05T07:55:13.668Z,18.47
2023-05-05T07:57:42.312Z,17.45
2023-05-05T08:00:10.210Z,16.08
2023-05-05T08:02:40.646Z,16.62
2023-05-05T08:05:08.578Z,16.32
2023-05-05T08:07:36.088Z,17.02
2023-05-05T08:10:03.231Z,15.97
2023-05-05T08:12:30.476Z,17.44
2023-05-05T08:14:59.075Z,16.94
2023-05-05T08:17:26.378Z,16.46
2023-05-05T08:19:53.573Z,15.63
2023-05-05T08:22:21.403Z,16.49
2023-05-05T08:24:48.607Z,15.70
2023-05-05T08:27:15.858Z,16.04
2023-05-05T08:29:42.976Z,15.99
2023-05-05T08:32:12.053Z,16.23
2023-05-05T08:34:39.296Z,15.69
2023-05-05T08:37:06.502Z,16.45
2023-05-05T08:39:33.626Z,16.22
2023-05-05T08:42:00.909Z,16.24
2023-05-05T08:44:28.283Z,15.95
2023-05-05T08:46:56.496Z,15.26
2023-05-05T08:49:25.830Z,15.43
2023-05-05T08:51:54.374Z,15.99
2023-05-05T08:54:23.767Z,15.18
2023-05-05T08:56:51.419Z,17.71
2023-05-05T08:59:19.090Z,16.49
2023-05-05T09:01:47.079Z,15.58
2023-05-05T09:04:14.464Z,15.55
2023-05-05T09:06:43.096Z,16.47
2023-05-05T09:09:10.399Z,15.67
2023-05-05T09:11:37.904Z,15.67
2023-05-05T09:14:05.010Z,16.45
2023-05-05T09:16:32.435Z,15.68
2023-05-05T09:19:03.282Z,19.13
2023-05-05T09:21:30.972Z,16.34
2023-05-05T09:24:08.407Z,17.77
2023-05-05T09:26:36.975Z,17.45
2023-05-05T09:29:04.170Z,15.61
2023-05-05T09:31:31.795Z,15.30
2023-05-05T09:33:59.954Z,14.23
2023-05-05T09:36:41.311Z,15.20
2023-05-05T09:39:10.111Z,14.61
2023-05-05T09:41:38.113Z,14.64
2023-05-05T09:44:05.483Z,16.68
2023-05-05T09:46:32.794Z,14.55
2023-05-05T09:49:12.211Z,14.40
2023-05-05T09:51:39.621Z,15.67
2023-05-05T09:54:06.891Z,17.85
2023-05-05T09:56:39.132Z,16.37
2023-05-05T09:59:09.215Z,15.68
2023-05-05T10:01:36.426Z,15.39
2023-05-05T10:04:03.564Z,13.75
2023-05-05T10:06:40.403Z,14.56
2023-05-05T10:09:07.563Z,13.62
2023-05-05T10:11:35.316Z,14.64
2023-05-05T10:14:06.728Z,16.00
2023-05-05T10:16:35.892Z,16.80
2023-05-05T10:19:03.507Z,14.98
2023-05-05T10:21:33.411Z,14.30
2023-05-05T10:24:06.818Z,15.48
2023-05-05T10:26:34.968Z,17.61
2023-05-05T10:29:07.905Z,15.81
2023-05-05T10:31:41.873Z,15.32
2023-05-05T10:34:10.865Z,17.37
2023-05-05T10:36:38.395Z,15.87
2023-05-05T10:39:05.977Z,15.03
2023-05-05T10:41:33.380Z,13.95
2023-05-05T10:44:03.644Z,14.49
2023-05-05T10:46:33.502Z,14.41
2023-05-05T10:49:05.143Z,14.41
2023-05-05T10:51:40.489Z,14.14
2023-05-05T10:54:10.909Z,14.13
2023-05-05T10:56:40.178Z,14.36
2023-05-05T10:59:22.083Z,14.50
2023-05-05T11:01:50.737Z,14.19
2023-05-05T11:04:18.543Z,13.88
2023-05-05T11:07:03.948Z,14.68
2023-05-05T11:09:31.255Z,14.73
2023-05-05T11:12:03.026Z,14.67
2023-05-05T11:14:30.560Z,15.26
2023-05-05T11:16:59.264Z,15.32
2023-05-05T11:19:41.133Z,14.99
2023-05-05T11:22:08.303Z,16.00
2023-05-05T11:24:35.816Z,15.47
2023-05-05T11:27:03.251Z,14.13
2023-05-05T11:29:45.366Z,16.01
2023-05-05T11:32:14.236Z,14.65
2023-05-05T11:34:48.459Z,15.00
2023-05-05T11:37:16.115Z,15.65
2023-05-05T11:39:47.615Z,14.46
2023-05-05T11:42:22.584Z,14.70
2023-05-05T11:44:49.687Z,14.00
2023-05-05T11:47:28.772Z,15.28
2023-05-05T11:49:56.095Z,14.21
2023-05-05T11:52:25.418Z,14.15
2023-05-05T11:54:53.216Z,14.08
2023-05-05T11:57:21.376Z,14.76
2023-05-05T11:59:54.353Z,15.10
2023-05-05T12:02:21.775Z,14.36
2023-05-05T12:04:50.908Z,14.80
2023-05-05T12:07:18.781Z,15.75
2023-05-05T12:09:46.353Z,14.63
2023-05-05T12:12:13.944Z,13.10
2023-05-05T12:14:48.535Z,14.23
2023-05-05T12:17:15.741Z,13.41
2023-05-05T12:19:46.517Z,13.80
2023-05-05T12:22:19.964Z,14.51
2023-05-05T12:24:54.438Z,13.41
2023-05-05T12:27:22.138Z,14.71
2023-05-05T12:29:49.629Z,14.01
2023-05-05T12:32:20.545Z,15.00
2023-05-05T12:34:48.213Z,15.13
2023-05-05T12:37:15.557Z,16.19
2023-05-05T12:39:44.535Z,15.61
2023-05-05T12:42:11.602Z,14.52
2023-05-05T12:44:39.648Z,15.08
2023-05-05T12:47:07.142Z,14.15
2023-05-05T12:49:44.949Z,14.06
2023-05-05T12:52:12.059Z,13.73
2023-05-05T12:54:54.744Z,13.78
2023-05-05T12:57:22.541Z,13.79
2023-05-05T12:59:49.947Z,14.17
2023-05-05T13:02:17.043Z,14.24
2023-05-05T13:04:51.264Z,14.54
2023-05-05T13:07:18.896Z,14.17
2023-05-05T13:09:46.372Z,15.48
2023-05-05T13:12:15.102Z,13.63
2023-05-05T13:14:42.226Z,13.01
2023-05-05T13:17:10.140Z,12.40
2023-05-05T13:19:37.358Z,12.87
2023-05-05T13:22:04.475Z,12.86
2023-05-05T13:24:42.275Z,12.42
2023-05-05T13:27:15.582Z,13.52
2023-05-05T13:29:42.644Z,12.73
2023-05-05T13:32:09.709Z,13.30
2023-05-05T13:34:36.896Z,15.54
2023-05-05T13:37:03.998Z,15.30
2023-05-05T13:39:31.088Z,12.64
2023-05-05T13:41:58.240Z,12.52
2023-05-05T13:44:26.783Z,13.10
2023-05-05T13:46:54.079Z,12.46
2023-05-05T13:49:21.394Z,12.48
2023-05-05T13:51:48.666Z,15.44
2023-05-05T13:54:15.888Z,13.90
2023-05-05T13:56:43.132Z,13.57
2023-05-05T13:59:10.620Z,13.15
2023-05-05T14:01:39.326Z,13.35
2023-05-05T14:04:06.549Z,14.21
2023-05-05T14:06:34.308Z,14.11
2023-05-05T14:09:01.418Z,13.57
2023-05-05T14:11:28.754Z,13.46
2023-05-05T14:13:55.856Z,15.39
2023-05-05T14:16:23.140Z,13.18
2023-05-05T14:18:52.754Z,14.88
2023-05-05T14:21:19.813Z,12.98
2023-05-05T14:23:46.967Z,13.04
2023-05-05T14:26:14.118Z,12.17
2023-05-05T14:28:41.181Z,11.85
2023-05-05T14:31:08.277Z,11.70
2023-05-05T14:33:35.372Z,12.29
2023-05-05T14:36:04.043Z,12.14
2023-05-05T14:38:31.188Z,11.79
2023-05-05T14:40:58.411Z,11.74
2023-05-05T14:43:25.604Z,12.28
2023-05-05T14:45:52.749Z,12.11
2023-05-05T14:48:19.934Z,12.66
2023-05-05T14:50:47.002Z,12.89
2023-05-05T14:53:15.526Z,12.58
2023-05-05T14:55:42.597Z,13.40
2023-05-05T14:58:10.089Z,13.40
2023-05-05T15:00:37.237Z,13.56
2023-05-05T15:03:04.455Z,12.88
2023-05-05T15:05:31.638Z,13.28
2023-05-05T15:07:58.776Z,14.04
2023-05-05T15:10:27.330Z,13.47
2023-05-05T15:12:54.947Z,13.96
2023-05-05T15:15:22.129Z,14.14
2023-05-05T15:17:49.268Z,13.29
2023-05-05T15:20:16.375Z,14.00
2023-05-05T15:22:43.597Z,13.50
2023-05-05T15:25:11.102Z,13.80
2023-05-05T15:27:39.857Z,13.70
2023-05-05T15:30:07.720Z,13.79
2023-05-05T15:32:34.881Z,13.66
2023-05-05T15:35:02.115Z,14.61
2023-05-05T15:37:29.214Z,14.05
2023-05-05T15:39:56.482Z,15.36
2023-05-05T15:42:23.999Z,15.88
2023-05-05T15:44:52.493Z,14.20
2023-05-05T15:47:19.783Z,15.04
2023-05-05T15:49:46.992Z,14.89
2023-05-05T15:52:14.111Z,13.69
2023-05-05T15:54:41.183Z,14.47
2023-05-05T15:57:08.439Z,14.41
2023-05-05T15:59:35.685Z,15.00
2023-05-05T16:02:04.260Z,16.22
2023-05-05T16:04:31.889Z,16.13
2023-05-05T16:06:58.958Z,16.04
2023-05-05T16:09:26.042Z,15.08
2023-05-05T16:11:53.548Z,15.63
2023-05-05T16:14:20.620Z,15.25
2023-05-05T16:16:47.797Z,17.24
2023-05-05T16:19:16.457Z,17.33
2023-05-05T16:21:43.516Z,15.04
2023-05-05T16:24:10.591Z,15.79
2023-05-05T16:26:37.760Z,16.23
2023-05-05T16:29:04.877Z,16.96
2023-05-05T16:31:32.354Z,16.73
2023-05-05T16:33:59.450Z,16.99
2023-05-05T16:36:28.073Z,15.46
2023-05-05T16:38:55.225Z,15.10
2023-05-05T16:41:22.372Z,16.35
2023-05-05T16:43:49.714Z,15.95
2023-05-05T16:46:17.083Z,15.27
2023-05-05T16:48:44.660Z,16.37
2023-05-05T16:51:12.123Z,15.28
2023-05-05T16:53:40.882Z,15.25
2023-05-05T16:56:11.249Z,17.01
2023-05-05T16:58:38.413Z,15.46
2023-05-05T17:01:06.372Z,14.92
2023-05-05T17:03:33.428Z,15.35
2023-05-05T17:06:00.773Z,16.17
2023-05-05T17:08:28.132Z,15.88
2023-05-05T17:10:56.664Z,16.37
2023-05-05T17:13:23.889Z,14.70
2023-05-05T17:15:50.996Z,15.29
2023-05-05T17:18:18.153Z,15.09
2023-05-05T17:20:45.444Z,14.80
2023-05-05T17:23:12.610Z,15.79
2023-05-05T17:25:40.454Z,15.30
2023-05-05T17:28:09.353Z,17.07
2023-05-05T17:30:36.541Z,15.42
2023-05-05T17:33:04.218Z,15.00
2023-05-05T17:35:31.940Z,16.28
2023-05-05T17:37:59.344Z,15.24
2023-05-05T17:40:27.308Z,15.63
2023-05-05T17:42:54.836Z,15.69
2023-05-05T17:45:23.901Z,15.51
2023-05-05T17:47:51.648Z,15.10
2023-05-05T17:50:19.150Z,16.01
2023-05-05T17:52:46.606Z,17.42
2023-05-05T17:55:13.926Z,15.75
2023-05-05T17:57:41.640Z,15.72
2023-05-05T18:00:09.682Z,15.55
2023-05-05T18:02:41.390Z,15.25
2023-05-05T18:05:09.699Z,14.87
2023-05-05T18:07:37.566Z,15.63
2023-05-05T18:10:05.001Z,17.89
2023-05-05T18:12:32.222Z,17.08
2023-05-05T18:14:59.526Z,16.18
2023-05-05T18:17:26.905Z,16.20
2023-05-05T18:19:55.488Z,16.16
2023-05-05T18:22:22.605Z,16.21
2023-05-05T18:24:50.054Z,15.67
2023-05-05T18:27:17.272Z,17.77
2023-05-05T18:29:45.065Z,17.92
2023-05-05T18:32:12.232Z,16.66
2023-05-05T18:34:39.308Z,16.72
2023-05-05T18:37:07.813Z,15.38
2023-05-05T18:39:34.884Z,16.59
2023-05-05T18:42:02.049Z,15.34
2023-05-05T18:44:29.100Z,17.06
2023-05-05T18:46:56.268Z,15.72
2023-05-05T18:49:23.895Z,15.54
2023-05-05T18:51:50.960Z,16.38
2023-05-05T18:54:19.641Z,16.49
2023-05-05T18:56:46.729Z,16.94
2023-05-05T18:59:13.888Z,17.53
2023-05-05T19:01:42.990Z,15.84
2023-05-05T19:04:26.625Z,16.46
2023-05-05T19:06:58.127Z,15.70
2023-05-05T19:09:26.880Z,17.52
2023-05-05T19:11:53.969Z,17.26
2023-05-05T19:14:21.028Z,17.00
2023-05-05T19:16:48.265Z,15.52
2023-05-05T19:19:15.341Z,16.88
2023-05-05T19:21:42.476Z,17.02
2023-05-05T19:24:09.801Z,14.72
2023-05-05T19:26:38.540Z,16.47
2023-05-05T19:29:05.608Z,15.89
2023-05-05T19:31:32.786Z,17.13
2023-05-05T19:34:01.083Z,16.97
2023-05-05T19:36:28.295Z,17.47
2023-05-05T19:38:55.849Z,16.53
2023-05-05T19:41:22.956Z,17.29
2023-05-05T19:43:51.573Z,16.31
2023-05-05T19:46:19.233Z,17.65
2023-05-05T19:48:46.422Z,16.29
2023-05-05T19:51:13.548Z,18.40
2023-05-05T19:53:40.611Z,17.47
2023-05-05T19:56:07.773Z,16.07
2023-05-05T19:58:52.574Z,15.98
2023-05-05T20:01:21.538Z,14.78
2023-05-05T20:03:48.832Z,15.10
2023-05-05T20:06:16.464Z,15.20
2023-05-05T20:08:43.706Z,14.60
2023-05-05T20:11:11.346Z,14.74
2023-05-05T20:13:38.457Z,14.85
2023-05-05T20:16:06.351Z,15.03
2023-05-05T20:18:34.929Z,16.08
2023-05-05T20:21:02.426Z,15.07
2023-05-05T20:23:29.763Z,14.96
2023-05-05T20:25:57.345Z,14.46
2023-05-05T20:28:25.185Z,14.76
2023-05-05T20:30:52.912Z,15.38
2023-05-05T20:33:20.005Z,15.78
2023-05-05T20:35:48.650Z,15.06
2023-05-05T20:38:15.819Z,17.13
2023-05-05T20:40:42.849Z,15.56
2023-05-05T20:43:09.937Z,15.68
2023-05-05T20:45:37.058Z,15.47
2023-05-05T20:48:04.651Z,15.80
2023-05-05T20:50:31.747Z,14.02
2023-05-05T20:53:01.279Z,14.72
2023-05-05T20:55:28.989Z,14.31
2023-05-05T20:57:56.142Z,14.25
2023-05-05T21:00:23.529Z,14.43
2023-05-05T21:02:50.820Z,14.78
2023-05-05T21:05:18.138Z,16.23
2023-05-05T21:07:45.344Z,16.32
2023-05-05T21:10:13.897Z,14.51
2023-05-05T21:12:41.315Z,16.87
2023-05-05T21:15:09.339Z,17.10
2023-05-05T21:17:36.765Z,15.74
2023-05-05T21:20:04.330Z,15.72
2023-05-05T21:22:31.397Z,17.12
2023-05-05T21:25:08.387Z,14.51
2023-05-05T21:27:36.907Z,14.75
2023-05-05T21:30:04.221Z,15.45
2023-05-05T21:32:31.574Z,15.80
2023-05-05T21:34:58.920Z,15.69
2023-05-05T21:37:26.286Z,16.54
2023-05-05T21:39:53.366Z,16.25
2023-05-05T21:42:21.880Z,16.25
2023-05-05T21:44:50.630Z,15.62
2023-05-05T21:47:18.037Z,16.56
2023-05-05T21:49:45.210Z,15.50
2023-05-05T21:52:12.490Z,14.89
2023-05-05T21:54:39.749Z,14.04
2023-05-05T21:57:06.864Z,15.02
2023-05-05T21:59:34.489Z,14.54
2023-05-05T22:02:03.480Z,14.46
2023-05-05T22:04:30.743Z,14.16
2023-05-05T22:06:58.352Z,14.77
2023-05-05T22:09:25.528Z,14.45
2023-05-05T22:11:52.722Z,14.71
2023-05-05T22:14:19.924Z,15.16
2023-05-05T22:16:47.051Z,15.19
2023-05-05T22:19:15.912Z,14.34
2023-05-05T22:21:43.079Z,14.86
2023-05-05T22:24:10.197Z,15.46
2023-05-05T22:26:37.355Z,14.90
2023-05-05T22:29:04.390Z,14.35
2023-05-05T22:31:31.507Z,17.58
2023-05-05T22:33:58.698Z,14.86
2023-05-05T22:36:27.357Z,17.66
2023-05-05T22:38:54.956Z,15.89
2023-05-05T22:41:22.453Z,16.14
2023-05-05T22:43:49.574Z,14.91
2023-05-05T22:46:16.623Z,16.88
2023-05-05T22:48:43.764Z,15.54
2023-05-05T22:51:11.317Z,16.46
2023-05-05T22:53:39.951Z,17.10
2023-05-05T22:56:07.264Z,15.95
2023-05-05T22:58:34.317Z,15.06
2023-05-05T23:01:02.108Z,16.46
2023-05-05T23:03:29.227Z,15.16
2023-05-05T23:05:56.359Z,15.16
2023-05-05T23:08:23.478Z,15.62
2023-05-05T23:10:51.980Z,15.51
2023-05-05T23:13:19.102Z,15.42
2023-05-05T23:15:46.201Z,15.39
2023-05-05T23:18:13.283Z,15.67
2023-05-05T23:20:40.957Z,15.84
2023-05-05T23:23:08.094Z,16.78
2023-05-05T23:25:35.173Z,15.73
2023-05-05T23:28:04.043Z,15.89
2023-05-05T23:30:31.634Z,16.27
2023-05-05T23:32:58.752Z,16.72
2023-05-05T23:35:25.896Z,16.20
2023-05-05T23:37:52.954Z,15.61
2023-05-05T23:40:20.153Z,16.68
2023-05-05T23:42:47.209Z,15.91
2023-05-05T23:45:17.553Z,15.74
2023-05-05T23:47:45.946Z,16.73
2023-05-05T23:50:13.047Z,16.70
2023-05-05T23:52:40.209Z,16.08
2023-05-05T23:55:08.676Z,16.05
2023-05-05T23:57:36.493Z,15.95
